sensor_id;sensor_type;location;lat;lon;timestamp;P1;durP1;ratioP1;P2;durP2;ratioP2
10851;SDS011;5479;52.046;6.314;2023-09-08T00:01:52;10.60;;;8.90;;
10851;SDS011;5479;52.046;6.314;2023-09-08T00:04:22;12.20;;;8.40;;
10851;SDS011;5479;52.046;6.314;2023-09-08T00:06:50;10.17;;;8.33;;
10851;SDS011;5479;52.046;6.314;2023-09-08T00:09:18;12.07;;;8.80;;
10851;SDS011;5479;52.046;6.314;2023-09-08T00:11:47;9.23;;;8.23;;
10851;SDS011;5479;52.046;6.314;2023-09-08T00:14:15;10.20;;;8.47;;
10851;SDS011;5479;52.046;6.314;2023-09-08T00:16:43;12.67;;;9.07;;
10851;SDS011;5479;52.046;6.314;2023-09-08T00:19:10;10.17;;;9.10;;
10851;SDS011;5479;52.046;6.314;2023-09-08T00:21:40;13.57;;;9.90;;
10851;SDS011;5479;52.046;6.314;2023-09-08T00:24:09;10.77;;;8.47;;
10851;SDS011;5479;52.046;6.314;2023-09-08T00:26:38;11.80;;;9.30;;
10851;SDS011;5479;52.046;6.314;2023-09-08T00:29:06;11.77;;;9.20;;
10851;SDS011;5479;52.046;6.314;2023-09-08T00:31:35;10.03;;;9.00;;
10851;SDS011;5479;52.046;6.314;2023-09-08T00:34:02;11.07;;;9.20;;
10851;SDS011;5479;52.046;6.314;2023-09-08T00:36:30;12.18;;;9.20;;
10851;SDS011;5479;52.046;6.314;2023-09-08T00:39:00;11.27;;;9.48;;
10851;SDS011;5479;52.046;6.314;2023-09-08T00:41:27;9.70;;;8.70;;
10851;SDS011;5479;52.046;6.314;2023-09-08T00:43:55;12.00;;;9.10;;
10851;SDS011;5479;52.046;6.314;2023-09-08T00:46:23;11.03;;;9.00;;
10851;SDS011;5479;52.046;6.314;2023-09-08T00:48:53;10.00;;;8.93;;
10851;SDS011;5479;52.046;6.314;2023-09-08T00:51:22;11.37;;;9.07;;
10851;SDS011;5479;52.046;6.314;2023-09-08T00:53:50;9.80;;;8.80;;
10851;SDS011;5479;52.046;6.314;2023-09-08T00:56:19;12.20;;;9.40;;
10851;SDS011;5479;52.046;6.314;2023-09-08T00:58:47;10.77;;;8.90;;
10851;SDS011;5479;52.046;6.314;2023-09-08T01:01:15;11.37;;;10.07;;
10851;SDS011;5479;52.046;6.314;2023-09-08T01:03:44;10.40;;;9.40;;
10851;SDS011;5479;52.046;6.314;2023-09-08T01:06:12;13.93;;;10.83;;
10851;SDS011;5479;52.046;6.314;2023-09-08T01:08:41;11.27;;;8.93;;
10851;SDS011;5479;52.046;6.314;2023-09-08T01:11:10;9.97;;;8.93;;
10851;SDS011;5479;52.046;6.314;2023-09-08T01:13:41;12.23;;;9.77;;
10851;SDS011;5479;52.046;6.314;2023-09-08T01:16:10;10.60;;;9.43;;
10851;SDS011;5479;52.046;6.314;2023-09-08T01:18:38;11.07;;;9.97;;
10851;SDS011;5479;52.046;6.314;2023-09-08T01:24:19;11.77;;;10.57;;
10851;SDS011;5479;52.046;6.314;2023-09-08T01:27:00;11.60;;;10.23;;
10851;SDS011;5479;52.046;6.314;2023-09-08T01:29:28;10.20;;;9.20;;
10851;SDS011;5479;52.046;6.314;2023-09-08T01:31:57;10.83;;;9.73;;
10851;SDS011;5479;52.046;6.314;2023-09-08T01:34:27;12.10;;;10.10;;
10851;SDS011;5479;52.046;6.314;2023-09-08T01:36:54;12.30;;;10.47;;
10851;SDS011;5479;52.046;6.314;2023-09-08T01:39:23;11.33;;;10.10;;
10851;SDS011;5479;52.046;6.314;2023-09-08T01:41:51;12.27;;;9.80;;
10851;SDS011;5479;52.046;6.314;2023-09-08T01:44:20;10.83;;;9.73;;
10851;SDS011;5479;52.046;6.314;2023-09-08T01:46:48;13.90;;;10.03;;
10851;SDS011;5479;52.046;6.314;2023-09-08T01:49:17;11.23;;;9.80;;
10851;SDS011;5479;52.046;6.314;2023-09-08T01:51:45;11.93;;;10.73;;
10851;SDS011;5479;52.046;6.314;2023-09-08T01:54:13;11.60;;;10.40;;
10851;SDS011;5479;52.046;6.314;2023-09-08T01:56:41;11.87;;;10.53;;
10851;SDS011;5479;52.046;6.314;2023-09-08T01:59:09;14.33;;;10.33;;
10851;SDS011;5479;52.046;6.314;2023-09-08T02:01:38;11.67;;;10.30;;
10851;SDS011;5479;52.046;6.314;2023-09-08T02:04:06;11.53;;;10.37;;
10851;SDS011;5479;52.046;6.314;2023-09-08T02:06:34;12.57;;;11.20;;
10851;SDS011;5479;52.046;6.314;2023-09-08T02:09:02;13.13;;;10.57;;
10851;SDS011;5479;52.046;6.314;2023-09-08T02:11:32;11.43;;;10.23;;
10851;SDS011;5479;52.046;6.314;2023-09-08T02:14:03;11.33;;;10.20;;
10851;SDS011;5479;52.046;6.314;2023-09-08T02:16:31;11.20;;;10.00;;
10851;SDS011;5479;52.046;6.314;2023-09-08T02:19:00;11.27;;;10.07;;
10851;SDS011;5479;52.046;6.314;2023-09-08T02:21:28;12.93;;;10.90;;
10851;SDS011;5479;52.046;6.314;2023-09-08T02:23:56;12.17;;;10.73;;
10851;SDS011;5479;52.046;6.314;2023-09-08T02:26:24;11.60;;;10.30;;
10851;SDS011;5479;52.046;6.314;2023-09-08T02:28:53;12.90;;;11.60;;
10851;SDS011;5479;52.046;6.314;2023-09-08T02:31:21;12.07;;;10.77;;
10851;SDS011;5479;52.046;6.314;2023-09-08T02:33:49;12.43;;;10.90;;
10851;SDS011;5479;52.046;6.314;2023-09-08T02:36:19;12.03;;;10.83;;
10851;SDS011;5479;52.046;6.314;2023-09-08T02:38:51;13.00;;;11.20;;
10851;SDS011;5479;52.046;6.314;2023-09-08T02:41:19;12.73;;;10.77;;
10851;SDS011;5479;52.046;6.314;2023-09-08T02:43:48;13.30;;;10.97;;
10851;SDS011;5479;52.046;6.314;2023-09-08T02:46:16;12.13;;;10.80;;
10851;SDS011;5479;52.046;6.314;2023-09-08T02:48:44;12.70;;;11.50;;
10851;SDS011;5479;52.046;6.314;2023-09-08T02:51:12;12.97;;;11.47;;
10851;SDS011;5479;52.046;6.314;2023-09-08T02:53:41;13.53;;;11.70;;
10851;SDS011;5479;52.046;6.314;2023-09-08T02:56:09;12.90;;;11.60;;
10851;SDS011;5479;52.046;6.314;2023-09-08T02:58:37;12.93;;;11.53;;
10851;SDS011;5479;52.046;6.314;2023-09-08T03:01:11;13.00;;;11.63;;
10851;SDS011;5479;52.046;6.314;2023-09-08T03:03:41;13.30;;;11.90;;
10851;SDS011;5479;52.046;6.314;2023-09-08T03:06:10;13.60;;;11.93;;
10851;SDS011;5479;52.046;6.314;2023-09-08T03:08:40;13.77;;;12.37;;
10851;SDS011;5479;52.046;6.314;2023-09-08T03:11:09;13.80;;;12.30;;
10851;SDS011;5479;52.046;6.314;2023-09-08T03:13:36;13.37;;;12.03;;
10851;SDS011;5479;52.046;6.314;2023-09-08T03:16:05;14.23;;;11.80;;
10851;SDS011;5479;52.046;6.314;2023-09-08T03:18:33;13.40;;;12.00;;
10851;SDS011;5479;52.046;6.314;2023-09-08T03:21:02;14.30;;;12.80;;
10851;SDS011;5479;52.046;6.314;2023-09-08T03:23:35;13.30;;;11.70;;
10851;SDS011;5479;52.046;6.314;2023-09-08T03:26:05;13.13;;;11.53;;
10851;SDS011;5479;52.046;6.314;2023-09-08T03:28:34;13.50;;;12.20;;
10851;SDS011;5479;52.046;6.314;2023-09-08T03:31:03;12.97;;;11.23;;
10851;SDS011;5479;52.046;6.314;2023-09-08T03:33:31;13.23;;;11.93;;
10851;SDS011;5479;52.046;6.314;2023-09-08T03:35:59;13.10;;;11.80;;
10851;SDS011;5479;52.046;6.314;2023-09-08T03:38:27;14.23;;;12.53;;
10851;SDS011;5479;52.046;6.314;2023-09-08T03:40:55;13.37;;;11.83;;
10851;SDS011;5479;52.046;6.314;2023-09-08T03:43:24;13.17;;;11.80;;
10851;SDS011;5479;52.046;6.314;2023-09-08T03:45:52;13.73;;;12.33;;
10851;SDS011;5479;52.046;6.314;2023-09-08T03:48:21;16.50;;;12.47;;
10851;SDS011;5479;52.046;6.314;2023-09-08T03:50:49;13.87;;;12.47;;
10851;SDS011;5479;52.046;6.314;2023-09-08T03:53:19;14.03;;;12.63;;
10851;SDS011;5479;52.046;6.314;2023-09-08T03:55:47;14.97;;;13.37;;
10851;SDS011;5479;52.046;6.314;2023-09-08T03:58:15;13.87;;;12.43;;
10851;SDS011;5479;52.046;6.314;2023-09-08T04:00:44;15.27;;;12.53;;
10851;SDS011;5479;52.046;6.314;2023-09-08T04:03:12;13.37;;;12.07;;
10851;SDS011;5479;52.046;6.314;2023-09-08T04:05:40;13.17;;;11.60;;
10851;SDS011;5479;52.046;6.314;2023-09-08T04:08:08;12.90;;;11.60;;
10851;SDS011;5479;52.046;6.314;2023-09-08T04:10:36;12.73;;;11.33;;
10851;SDS011;5479;52.046;6.314;2023-09-08T04:13:04;12.87;;;11.67;;
10851;SDS011;5479;52.046;6.314;2023-09-08T04:15:32;14.60;;;12.80;;
10851;SDS011;5479;52.046;6.314;2023-09-08T04:18:01;16.37;;;13.03;;
10851;SDS011;5479;52.046;6.314;2023-09-08T04:20:29;14.37;;;12.83;;
10851;SDS011;5479;52.046;6.314;2023-09-08T04:22:57;14.93;;;12.43;;
10851;SDS011;5479;52.046;6.314;2023-09-08T04:25:25;13.60;;;12.30;;
10851;SDS011;5479;52.046;6.314;2023-09-08T04:27:53;13.47;;;12.07;;
10851;SDS011;5479;52.046;6.314;2023-09-08T04:30:21;13.10;;;11.80;;
10851;SDS011;5479;52.046;6.314;2023-09-08T04:32:50;13.70;;;12.30;;
10851;SDS011;5479;52.046;6.314;2023-09-08T04:35:19;14.27;;;12.77;;
10851;SDS011;5479;52.046;6.314;2023-09-08T04:37:47;14.73;;;13.23;;
10851;SDS011;5479;52.046;6.314;2023-09-08T04:40:15;14.73;;;12.67;;
10851;SDS011;5479;52.046;6.314;2023-09-08T04:42:43;14.77;;;13.27;;
10851;SDS011;5479;52.046;6.314;2023-09-08T04:45:11;14.97;;;13.43;;
10851;SDS011;5479;52.046;6.314;2023-09-08T04:47:40;15.23;;;13.73;;
10851;SDS011;5479;52.046;6.314;2023-09-08T04:50:09;15.43;;;13.83;;
10851;SDS011;5479;52.046;6.314;2023-09-08T04:52:38;15.73;;;12.57;;
10851;SDS011;5479;52.046;6.314;2023-09-08T04:55:06;15.47;;;13.90;;
10851;SDS011;5479;52.046;6.314;2023-09-08T04:57:35;15.00;;;13.50;;
10851;SDS011;5479;52.046;6.314;2023-09-08T05:00:03;15.37;;;13.47;;
10851;SDS011;5479;52.046;6.314;2023-09-08T05:02:31;15.80;;;14.20;;
10851;SDS011;5479;52.046;6.314;2023-09-08T05:04:59;16.57;;;14.33;;
10851;SDS011;5479;52.046;6.314;2023-09-08T05:07:27;15.93;;;14.23;;
10851;SDS011;5479;52.046;6.314;2023-09-08T05:09:57;16.67;;;14.67;;
10851;SDS011;5479;52.046;6.314;2023-09-08T05:12:24;15.70;;;14.10;;
10851;SDS011;5479;52.046;6.314;2023-09-08T05:14:52;16.23;;;14.53;;
10851;SDS011;5479;52.046;6.314;2023-09-08T05:17:26;15.77;;;14.17;;
10851;SDS011;5479;52.046;6.314;2023-09-08T05:19:54;17.13;;;14.77;;
10851;SDS011;5479;52.046;6.314;2023-09-08T05:22:24;15.47;;;13.97;;
10851;SDS011;5479;52.046;6.314;2023-09-08T05:24:52;15.57;;;13.97;;
10851;SDS011;5479;52.046;6.314;2023-09-08T05:27:21;16.03;;;14.37;;
10851;SDS011;5479;52.046;6.314;2023-09-08T05:29:49;15.23;;;13.73;;
10851;SDS011;5479;52.046;6.314;2023-09-08T05:32:19;16.00;;;14.30;;
10851;SDS011;5479;52.046;6.314;2023-09-08T05:34:47;14.87;;;13.27;;
10851;SDS011;5479;52.046;6.314;2023-09-08T05:37:15;15.23;;;13.73;;
10851;SDS011;5479;52.046;6.314;2023-09-08T05:39:43;15.50;;;13.90;;
10851;SDS011;5479;52.046;6.314;2023-09-08T05:42:11;15.37;;;13.87;;
10851;SDS011;5479;52.046;6.314;2023-09-08T05:44:40;14.83;;;13.27;;
10851;SDS011;5479;52.046;6.314;2023-09-08T05:47:08;15.30;;;13.73;;
10851;SDS011;5479;52.046;6.314;2023-09-08T05:49:36;15.37;;;13.53;;
10851;SDS011;5479;52.046;6.314;2023-09-08T05:52:04;14.90;;;13.37;;
10851;SDS011;5479;52.046;6.314;2023-09-08T05:54:32;16.03;;;13.83;;
10851;SDS011;5479;52.046;6.314;2023-09-08T05:57:00;15.70;;;14.00;;
10851;SDS011;5479;52.046;6.314;2023-09-08T05:59:28;15.87;;;14.37;;
10851;SDS011;5479;52.046;6.314;2023-09-08T06:01:58;15.03;;;13.43;;
10851;SDS011;5479;52.046;6.314;2023-09-08T06:04:26;15.60;;;14.00;;
10851;SDS011;5479;52.046;6.314;2023-09-08T06:06:54;15.90;;;14.23;;
10851;SDS011;5479;52.046;6.314;2023-09-08T06:09:21;14.97;;;13.37;;
10851;SDS011;5479;52.046;6.314;2023-09-08T06:11:49;17.10;;;14.00;;
10851;SDS011;5479;52.046;6.314;2023-09-08T06:14:18;15.50;;;13.90;;
10851;SDS011;5479;52.046;6.314;2023-09-08T06:16:45;14.90;;;13.30;;
10851;SDS011;5479;52.046;6.314;2023-09-08T06:19:15;14.23;;;12.73;;
10851;SDS011;5479;52.046;6.314;2023-09-08T06:21:42;15.20;;;13.70;;
10851;SDS011;5479;52.046;6.314;2023-09-08T06:24:10;15.67;;;14.00;;
10851;SDS011;5479;52.046;6.314;2023-09-08T06:26:38;15.48;;;13.88;;
10851;SDS011;5479;52.046;6.314;2023-09-08T06:29:08;15.70;;;13.47;;
10851;SDS011;5479;52.046;6.314;2023-09-08T06:31:36;13.98;;;12.68;;
10851;SDS011;5479;52.046;6.314;2023-09-08T06:34:04;13.52;;;12.13;;
10851;SDS011;5479;52.046;6.314;2023-09-08T06:36:33;13.07;;;11.75;;
10851;SDS011;5479;52.046;6.314;2023-09-08T06:39:02;11.65;;;10.45;;
10851;SDS011;5479;52.046;6.314;2023-09-08T06:41:30;13.45;;;12.07;;
10851;SDS011;5479;52.046;6.314;2023-09-08T06:43:58;11.68;;;10.48;;
10851;SDS011;5479;52.046;6.314;2023-09-08T06:46:26;13.00;;;11.50;;
10851;SDS011;5479;52.046;6.314;2023-09-08T06:48:54;12.85;;;10.95;;
10851;SDS011;5479;52.046;6.314;2023-09-08T06:51:22;11.85;;;10.63;;
10851;SDS011;5479;52.046;6.314;2023-09-08T06:53:55;14.18;;;10.98;;
10851;SDS011;5479;52.046;6.314;2023-09-08T06:56:23;11.90;;;10.70;;
10851;SDS011;5479;52.046;6.314;2023-09-08T06:58:51;13.93;;;11.25;;
10851;SDS011;5479;52.046;6.314;2023-09-08T07:01:19;12.73;;;10.95;;
10851;SDS011;5479;52.046;6.314;2023-09-08T07:03:47;12.88;;;11.27;;
10851;SDS011;5479;52.046;6.314;2023-09-08T07:06:15;13.38;;;11.30;;
10851;SDS011;5479;52.046;6.314;2023-09-08T07:08:43;16.35;;;11.15;;
10851;SDS011;5479;52.046;6.314;2023-09-08T07:11:12;11.88;;;10.68;;
10851;SDS011;5479;52.046;6.314;2023-09-08T07:13:40;12.88;;;11.23;;
10851;SDS011;5479;52.046;6.314;2023-09-08T07:16:08;13.10;;;10.85;;
10851;SDS011;5479;52.046;6.314;2023-09-08T07:18:36;11.57;;;10.43;;
10851;SDS011;5479;52.046;6.314;2023-09-08T07:21:04;12.65;;;11.32;;
10851;SDS011;5479;52.046;6.314;2023-09-08T07:23:32;12.10;;;10.90;;
10851;SDS011;5479;52.046;6.314;2023-09-08T07:26:01;11.68;;;10.48;;
10851;SDS011;5479;52.046;6.314;2023-09-08T07:28:30;9.30;;;8.30;;
10851;SDS011;5479;52.046;6.314;2023-09-08T07:31:02;10.75;;;9.70;;
10851;SDS011;5479;52.046;6.314;2023-09-08T07:33:31;15.15;;;10.48;;
10851;SDS011;5479;52.046;6.314;2023-09-08T07:36:02;12.40;;;10.98;;
10851;SDS011;5479;52.046;6.314;2023-09-08T07:38:31;11.82;;;10.52;;
10851;SDS011;5479;52.046;6.314;2023-09-08T07:41:01;14.73;;;10.82;;
10851;SDS011;5479;52.046;6.314;2023-09-08T07:43:30;11.88;;;7.90;;
10851;SDS011;5479;52.046;6.314;2023-09-08T07:45:58;11.40;;;9.48;;
10851;SDS011;5479;52.046;6.314;2023-09-08T07:48:26;11.25;;;8.05;;
10851;SDS011;5479;52.046;6.314;2023-09-08T07:50:54;9.18;;;8.18;;
10851;SDS011;5479;52.046;6.314;2023-09-08T07:53:22;10.00;;;8.82;;
10851;SDS011;5479;52.046;6.314;2023-09-08T07:55:50;10.38;;;9.10;;
10851;SDS011;5479;52.046;6.314;2023-09-08T07:58:18;11.40;;;9.10;;
10851;SDS011;5479;52.046;6.314;2023-09-08T08:00:47;12.52;;;10.00;;
10851;SDS011;5479;52.046;6.314;2023-09-08T08:03:15;10.15;;;8.07;;
10851;SDS011;5479;52.046;6.314;2023-09-08T08:05:44;11.00;;;8.73;;
10851;SDS011;5479;52.046;6.314;2023-09-08T08:08:11;10.35;;;9.25;;
10851;SDS011;5479;52.046;6.314;2023-09-08T08:10:40;13.38;;;8.82;;
10851;SDS011;5479;52.046;6.314;2023-09-08T08:13:08;11.68;;;8.32;;
10851;SDS011;5479;52.046;6.314;2023-09-08T08:15:36;10.52;;;8.20;;
10851;SDS011;5479;52.046;6.314;2023-09-08T08:18:06;10.75;;;8.40;;
10851;SDS011;5479;52.046;6.314;2023-09-08T08:20:36;9.68;;;8.45;;
10851;SDS011;5479;52.046;6.314;2023-09-08T08:23:04;11.00;;;8.57;;
10851;SDS011;5479;52.046;6.314;2023-09-08T08:25:33;8.80;;;7.13;;
10851;SDS011;5479;52.046;6.314;2023-09-08T08:28:01;10.70;;;8.07;;
10851;SDS011;5479;52.046;6.314;2023-09-08T08:30:29;9.68;;;8.00;;
10851;SDS011;5479;52.046;6.314;2023-09-08T08:32:58;11.35;;;8.10;;
10851;SDS011;5479;52.046;6.314;2023-09-08T08:35:28;10.57;;;7.38;;
10851;SDS011;5479;52.046;6.314;2023-09-08T08:37:57;10.43;;;7.35;;
10851;SDS011;5479;52.046;6.314;2023-09-08T08:40:25;8.38;;;6.88;;
10851;SDS011;5479;52.046;6.314;2023-09-08T08:42:54;11.02;;;8.02;;
10851;SDS011;5479;52.046;6.314;2023-09-08T08:45:23;8.45;;;6.93;;
10851;SDS011;5479;52.046;6.314;2023-09-08T08:47:52;10.70;;;7.43;;
10851;SDS011;5479;52.046;6.314;2023-09-08T08:50:21;9.95;;;7.10;;
10851;SDS011;5479;52.046;6.314;2023-09-08T08:52:50;9.95;;;7.38;;
10851;SDS011;5479;52.046;6.314;2023-09-08T08:55:18;9.32;;;7.40;;
10851;SDS011;5479;52.046;6.314;2023-09-08T08:57:47;8.80;;;6.28;;
10851;SDS011;5479;52.046;6.314;2023-09-08T09:00:15;9.07;;;7.82;;
10851;SDS011;5479;52.046;6.314;2023-09-08T09:02:44;8.70;;;7.78;;
10851;SDS011;5479;52.046;6.314;2023-09-08T09:05:15;10.40;;;7.78;;
10851;SDS011;5479;52.046;6.314;2023-09-08T09:07:43;8.40;;;6.97;;
10851;SDS011;5479;52.046;6.314;2023-09-08T09:10:12;8.95;;;6.80;;
10851;SDS011;5479;52.046;6.314;2023-09-08T09:12:41;8.75;;;6.95;;
10851;SDS011;5479;52.046;6.314;2023-09-08T09:15:09;10.02;;;7.45;;
10851;SDS011;5479;52.046;6.314;2023-09-08T09:17:38;10.38;;;6.82;;
10851;SDS011;5479;52.046;6.314;2023-09-08T09:20:12;8.45;;;7.20;;
10851;SDS011;5479;52.046;6.314;2023-09-08T09:22:44;11.85;;;8.93;;
10851;SDS011;5479;52.046;6.314;2023-09-08T09:25:22;12.93;;;8.38;;
10851;SDS011;5479;52.046;6.314;2023-09-08T09:27:51;12.35;;;9.07;;
10851;SDS011;5479;52.046;6.314;2023-09-08T09:30:20;12.27;;;8.90;;
10851;SDS011;5479;52.046;6.314;2023-09-08T09:32:50;13.18;;;8.02;;
10851;SDS011;5479;52.046;6.314;2023-09-08T09:35:39;11.15;;;8.13;;
10851;SDS011;5479;52.046;6.314;2023-09-08T09:38:08;10.38;;;9.05;;
10851;SDS011;5479;52.046;6.314;2023-09-08T09:43:07;9.35;;;8.43;;
10851;SDS011;5479;52.046;6.314;2023-09-08T09:45:35;14.23;;;8.25;;
10851;SDS011;5479;52.046;6.314;2023-09-08T09:48:05;11.50;;;9.40;;
10851;SDS011;5479;52.046;6.314;2023-09-08T09:50:34;11.55;;;8.60;;
10851;SDS011;5479;52.046;6.314;2023-09-08T09:53:07;12.05;;;9.30;;
10851;SDS011;5479;52.046;6.314;2023-09-08T09:55:36;14.15;;;8.38;;
10851;SDS011;5479;52.046;6.314;2023-09-08T09:58:07;10.93;;;8.15;;
10851;SDS011;5479;52.046;6.314;2023-09-08T10:00:36;11.10;;;8.55;;
10851;SDS011;5479;52.046;6.314;2023-09-08T10:03:07;10.57;;;8.18;;
10851;SDS011;5479;52.046;6.314;2023-09-08T10:05:36;10.45;;;6.70;;
10851;SDS011;5479;52.046;6.314;2023-09-08T10:08:04;9.40;;;8.40;;
10851;SDS011;5479;52.046;6.314;2023-09-08T10:10:33;9.20;;;7.30;;
10851;SDS011;5479;52.046;6.314;2023-09-08T10:13:05;13.95;;;8.15;;
10851;SDS011;5479;52.046;6.314;2023-09-08T10:15:34;13.25;;;8.13;;
10851;SDS011;5479;52.046;6.314;2023-09-08T10:18:04;10.13;;;8.73;;
10851;SDS011;5479;52.046;6.314;2023-09-08T10:20:33;10.98;;;7.95;;
10851;SDS011;5479;52.046;6.314;2023-09-08T10:23:04;8.98;;;6.35;;
10851;SDS011;5479;52.046;6.314;2023-09-08T10:25:37;7.68;;;6.35;;
10851;SDS011;5479;52.046;6.314;2023-09-08T10:28:12;9.10;;;7.70;;
10851;SDS011;5479;52.046;6.314;2023-09-08T10:30:40;9.50;;;7.45;;
10851;SDS011;5479;52.046;6.314;2023-09-08T10:33:08;10.90;;;7.15;;
10851;SDS011;5479;52.046;6.314;2023-09-08T10:35:37;10.73;;;7.30;;
10851;SDS011;5479;52.046;6.314;2023-09-08T10:38:21;8.98;;;7.72;;
10851;SDS011;5479;52.046;6.314;2023-09-08T10:40:52;8.43;;;7.57;;
10851;SDS011;5479;52.046;6.314;2023-09-08T10:43:43;9.63;;;8.23;;
10851;SDS011;5479;52.046;6.314;2023-09-08T10:46:20;10.73;;;6.88;;
10851;SDS011;5479;52.046;6.314;2023-09-08T10:48:49;10.15;;;7.55;;
10851;SDS011;5479;52.046;6.314;2023-09-08T10:51:17;10.48;;;9.15;;
10851;SDS011;5479;52.046;6.314;2023-09-08T10:53:46;9.63;;;8.63;;
10851;SDS011;5479;52.046;6.314;2023-09-08T10:56:14;9.60;;;7.78;;
10851;SDS011;5479;52.046;6.314;2023-09-08T10:58:43;7.97;;;6.88;;
10851;SDS011;5479;52.046;6.314;2023-09-08T11:01:19;10.15;;;8.07;;
10851;SDS011;5479;52.046;6.314;2023-09-08T11:03:48;8.43;;;7.47;;
10851;SDS011;5479;52.046;6.314;2023-09-08T11:06:17;10.55;;;9.02;;
10851;SDS011;5479;52.046;6.314;2023-09-08T11:08:48;9.20;;;6.70;;
10851;SDS011;5479;52.046;6.314;2023-09-08T11:11:19;10.32;;;8.35;;
10851;SDS011;5479;52.046;6.314;2023-09-08T11:13:49;13.13;;;7.25;;
10851;SDS011;5479;52.046;6.314;2023-09-08T11:16:17;11.73;;;7.60;;
10851;SDS011;5479;52.046;6.314;2023-09-08T11:18:50;9.30;;;6.97;;
10851;SDS011;5479;52.046;6.314;2023-09-08T11:21:18;8.43;;;6.82;;
10851;SDS011;5479;52.046;6.314;2023-09-08T11:23:47;8.25;;;6.63;;
10851;SDS011;5479;52.046;6.314;2023-09-08T11:26:15;9.30;;;7.07;;
10851;SDS011;5479;52.046;6.314;2023-09-08T11:28:43;8.30;;;6.00;;
10851;SDS011;5479;52.046;6.314;2023-09-08T11:31:14;8.98;;;6.60;;
10851;SDS011;5479;52.046;6.314;2023-09-08T11:33:43;8.10;;;6.82;;
10851;SDS011;5479;52.046;6.314;2023-09-08T11:36:12;7.75;;;6.50;;
10851;SDS011;5479;52.046;6.314;2023-09-08T11:38:42;8.25;;;7.38;;
10851;SDS011;5479;52.046;6.314;2023-09-08T11:41:11;7.45;;;6.47;;
10851;SDS011;5479;52.046;6.314;2023-09-08T11:43:39;7.97;;;7.18;;
10851;SDS011;5479;52.046;6.314;2023-09-08T11:46:07;9.77;;;8.00;;
10851;SDS011;5479;52.046;6.314;2023-09-08T11:48:38;8.95;;;6.47;;
10851;SDS011;5479;52.046;6.314;2023-09-08T11:51:06;10.40;;;7.75;;
10851;SDS011;5479;52.046;6.314;2023-09-08T11:53:35;8.90;;;7.50;;
10851;SDS011;5479;52.046;6.314;2023-09-08T11:56:04;8.60;;;6.25;;
10851;SDS011;5479;52.046;6.314;2023-09-08T11:58:32;8.63;;;6.20;;
10851;SDS011;5479;52.046;6.314;2023-09-08T12:01:01;8.57;;;6.30;;
10851;SDS011;5479;52.046;6.314;2023-09-08T12:03:30;10.82;;;6.47;;
10851;SDS011;5479;52.046;6.314;2023-09-08T12:06:00;9.25;;;6.40;;
10851;SDS011;5479;52.046;6.314;2023-09-08T12:08:28;11.05;;;7.72;;
10851;SDS011;5479;52.046;6.314;2023-09-08T12:10:59;8.13;;;7.03;;
10851;SDS011;5479;52.046;6.314;2023-09-08T12:13:27;8.75;;;6.65;;
10851;SDS011;5479;52.046;6.314;2023-09-08T12:15:55;8.55;;;6.90;;
10851;SDS011;5479;52.046;6.314;2023-09-08T12:18:36;8.10;;;7.20;;
10851;SDS011;5479;52.046;6.314;2023-09-08T12:21:06;6.97;;;5.95;;
10851;SDS011;5479;52.046;6.314;2023-09-08T12:23:34;7.72;;;6.07;;
10851;SDS011;5479;52.046;6.314;2023-09-08T12:26:15;9.23;;;7.00;;
10851;SDS011;5479;52.046;6.314;2023-09-08T12:28:45;7.78;;;6.40;;
10851;SDS011;5479;52.046;6.314;2023-09-08T12:31:13;7.82;;;6.38;;
10851;SDS011;5479;52.046;6.314;2023-09-08T12:33:41;6.93;;;6.13;;
10851;SDS011;5479;52.046;6.314;2023-09-08T12:36:12;9.48;;;6.47;;
10851;SDS011;5479;52.046;6.314;2023-09-08T12:38:40;8.88;;;7.43;;
10851;SDS011;5479;52.046;6.314;2023-09-08T12:41:08;10.77;;;7.47;;
10851;SDS011;5479;52.046;6.314;2023-09-08T12:43:36;8.65;;;6.85;;
10851;SDS011;5479;52.046;6.314;2023-09-08T12:46:04;8.73;;;7.28;;
10851;SDS011;5479;52.046;6.314;2023-09-08T12:48:32;8.65;;;6.60;;
10851;SDS011;5479;52.046;6.314;2023-09-08T12:51:00;8.32;;;7.28;;
10851;SDS011;5479;52.046;6.314;2023-09-08T12:53:33;7.95;;;6.75;;
10851;SDS011;5479;52.046;6.314;2023-09-08T12:56:02;8.75;;;6.72;;
10851;SDS011;5479;52.046;6.314;2023-09-08T12:58:30;11.82;;;7.43;;
10851;SDS011;5479;52.046;6.314;2023-09-08T13:00:58;9.27;;;7.05;;
10851;SDS011;5479;52.046;6.314;2023-09-08T13:03:26;9.32;;;6.80;;
10851;SDS011;5479;52.046;6.314;2023-09-08T13:05:55;8.90;;;6.68;;
10851;SDS011;5479;52.046;6.314;2023-09-08T13:08:23;9.15;;;6.28;;
10851;SDS011;5479;52.046;6.314;2023-09-08T13:10:52;8.48;;;6.63;;
10851;SDS011;5479;52.046;6.314;2023-09-08T13:13:20;8.82;;;6.75;;
10851;SDS011;5479;52.046;6.314;2023-09-08T13:15:48;11.35;;;6.63;;
10851;SDS011;5479;52.046;6.314;2023-09-08T13:18:16;6.70;;;5.57;;
10851;SDS011;5479;52.046;6.314;2023-09-08T13:20:44;9.70;;;6.50;;
10851;SDS011;5479;52.046;6.314;2023-09-08T13:23:12;10.13;;;6.70;;
10851;SDS011;5479;52.046;6.314;2023-09-08T13:25:40;12.15;;;6.30;;
10851;SDS011;5479;52.046;6.314;2023-09-08T13:28:09;8.07;;;6.13;;
10851;SDS011;5479;52.046;6.314;2023-09-08T13:30:40;8.30;;;6.70;;
10851;SDS011;5479;52.046;6.314;2023-09-08T13:33:09;7.63;;;6.82;;
10851;SDS011;5479;52.046;6.314;2023-09-08T13:35:37;10.48;;;6.47;;
10851;SDS011;5479;52.046;6.314;2023-09-08T13:38:05;9.25;;;6.55;;
10851;SDS011;5479;52.046;6.314;2023-09-08T13:40:33;8.27;;;6.55;;
10851;SDS011;5479;52.046;6.314;2023-09-08T13:43:01;7.80;;;6.28;;
10851;SDS011;5479;52.046;6.314;2023-09-08T13:45:30;7.60;;;5.97;;
10851;SDS011;5479;52.046;6.314;2023-09-08T13:47:58;8.38;;;6.28;;
10851;SDS011;5479;52.046;6.314;2023-09-08T13:50:26;9.77;;;6.70;;
10851;SDS011;5479;52.046;6.314;2023-09-08T13:52:54;8.77;;;6.75;;
10851;SDS011;5479;52.046;6.314;2023-09-08T13:55:22;7.88;;;6.70;;
10851;SDS011;5479;52.046;6.314;2023-09-08T13:57:51;7.65;;;5.85;;
10851;SDS011;5479;52.046;6.314;2023-09-08T14:00:19;8.10;;;6.05;;
10851;SDS011;5479;52.046;6.314;2023-09-08T14:02:49;10.75;;;6.80;;
10851;SDS011;5479;52.046;6.314;2023-09-08T14:05:17;12.70;;;6.90;;
10851;SDS011;5479;52.046;6.314;2023-09-08T14:07:45;10.77;;;6.85;;
10851;SDS011;5479;52.046;6.314;2023-09-08T14:10:13;8.68;;;6.40;;
10851;SDS011;5479;52.046;6.314;2023-09-08T14:12:41;8.02;;;6.97;;
10851;SDS011;5479;52.046;6.314;2023-09-08T14:15:09;8.25;;;6.93;;
10851;SDS011;5479;52.046;6.314;2023-09-08T14:17:41;8.13;;;6.97;;
10851;SDS011;5479;52.046;6.314;2023-09-08T14:20:11;8.75;;;6.63;;
10851;SDS011;5479;52.046;6.314;2023-09-08T14:22:40;10.10;;;7.03;;
10851;SDS011;5479;52.046;6.314;2023-09-08T14:25:08;8.32;;;7.05;;
10851;SDS011;5479;52.046;6.314;2023-09-08T14:27:36;8.93;;;6.63;;
10851;SDS011;5479;52.046;6.314;2023-09-08T14:30:06;9.15;;;7.07;;
10851;SDS011;5479;52.046;6.314;2023-09-08T14:32:34;8.27;;;6.63;;
10851;SDS011;5479;52.046;6.314;2023-09-08T14:35:02;8.50;;;6.50;;
10851;SDS011;5479;52.046;6.314;2023-09-08T14:37:32;8.48;;;6.55;;
10851;SDS011;5479;52.046;6.314;2023-09-08T14:40:00;7.72;;;6.75;;
10851;SDS011;5479;52.046;6.314;2023-09-08T14:42:29;12.32;;;6.85;;
10851;SDS011;5479;52.046;6.314;2023-09-08T14:44:57;11.38;;;6.80;;
10851;SDS011;5479;52.046;6.314;2023-09-08T14:47:24;10.48;;;6.50;;
10851;SDS011;5479;52.046;6.314;2023-09-08T14:49:52;10.55;;;6.90;;
10851;SDS011;5479;52.046;6.314;2023-09-08T14:52:20;7.05;;;6.13;;
10851;SDS011;5479;52.046;6.314;2023-09-08T14:54:50;7.75;;;6.25;;
10851;SDS011;5479;52.046;6.314;2023-09-08T14:57:18;8.18;;;6.90;;
10851;SDS011;5479;52.046;6.314;2023-09-08T14:59:46;9.32;;;7.07;;
10851;SDS011;5479;52.046;6.314;2023-09-08T15:02:14;8.27;;;7.03;;